Bruceton, Tennessee
Current Conditions -  °F | °C
As of 12:15 PM on Friday 31 Oct 2014 (Local Time) from KPHT Reporting Station
Overcast Overcast  
Wind Chill: 50°   Ceiling: 2700
Heat Index: 50°   Visibility: 10mi
Dew Point: 41°   Wind: 14mph
Humidity: 71%   Direction: 360°N
Pressure: 30.09"   Gusts: NA
Location:  36.04°N, 88.24°W
Report Text: KPHT 311715Z AUTO 36012KT 10SM BKN027 OVC037 10/05 A3009 RMK
Loading
Personal Weather Stations






























Interactive Weather Map
Tropical Storm Tracking
New forecast layout! Learn more

10-Day Weather Forecast

Advertisements
Track Severe Weather on mobile